To NAV CANADA Home Page Login to a new session Search on AWWS site Feedback and Comments Disclaimer Vers la page française équivalente Tips FAQ What's new on the site To the Forecasts and Observations / NOTAM section To "File a Flight Plan" website Publications and other links Update of the User's profile FIC Telephone Numbers My Weather Data Folder Route Weather Data Regional Weather Data Local Weather Data To the Forecasts and Observations / NOTAM section
Request Generated 08/24/2016 at 06:37:29 UTC . Weather information available at that time is displayed.

METAR/TAF

KUUJJUAQ/QC    

METAR CYVP 240600Z 20008KT 15SM FEW020 FEW050 BKN085 BKN120 11/08
A2948 RMK SC1SC1AC3AC2 SLP988=
METAR CYVP 240500Z 19007KT 15SM FEW035 FEW050 BKN085 BKN120 10/07
A2950 RMK SC1SC1AC4AC1 SLP993=
METAR CYVP 240400Z 21009KT 15SM FEW040 BKN085 BKN120 11/07 A2953 RMK
SC1AC5AC1 SLP002=

TAF CYVP 240540Z 2406/2418 22010KT P6SM SCT040 BKN080 OVC120 TEMPO
2406/2418 P6SM -SHRA BKN020 OVC040
BECMG 2414/2416 24012G22KT
RMK NXT FCST BY 241200Z=
Your time UTC time
Weather data provided by Environment Canada and NAV CANADA